Weather at Zürich Airport

Public forecast

Using degrees Celsius for public forecast. Weather courtesy of forecast.io.

Current aviation weather report (METAR) for Zürich Airport

2022/12/08 12:50 (retrieved 13 minutes ago)

LSZH 081250Z VRB02KT 9999 FEW016 SCT030 03/M01 Q1008 NOSIG

Aviation forecast (TAF) for Zürich Airport

2022/12/08 12:33 (retrieved 30 minutes ago)

TAF LSZH 081125Z 0812/0918 VRB02KT 9999 FEW015 SCT030 TX02/0813Z TNM02/0906Z TX01/0913Z TEMPO 0813/0819 CAVOK BECMG 0900/0903 SCT007 BKN012 TEMPO 0903/0918 2500 -SN BKN009 PROB30 0904/0909 BKN004